createdAt,value
2022-09-20T00:01:32.521Z,0.90
2022-09-20T00:04:05.098Z,0.43
2022-09-20T00:06:33.260Z,0.60
2022-09-20T00:09:01.439Z,1.57
2022-09-20T00:11:32.700Z,1.00
2022-09-20T00:14:01.645Z,0.90
2022-09-20T00:16:35.801Z,1.00
2022-09-20T00:19:04.641Z,0.40
2022-09-20T00:21:34.974Z,1.25
2022-09-20T00:24:02.383Z,0.57
2022-09-20T00:26:30.240Z,1.10
2022-09-20T00:28:58.633Z,0.63
2022-09-20T00:31:26.265Z,0.52
2022-09-20T00:34:16.304Z,0.60
2022-09-20T00:36:44.823Z,0.60
2022-09-20T00:39:14.487Z,1.00
2022-09-20T00:41:41.614Z,0.85
2022-09-20T00:45:03.572Z,0.90
2022-09-20T00:47:59.675Z,0.43
2022-09-20T00:50:43.086Z,0.68
2022-09-20T00:53:13.453Z,2.25
2022-09-20T00:55:53.048Z,0.73
2022-09-20T00:58:21.853Z,1.05
2022-09-20T01:00:52.230Z,0.70
2022-09-20T01:03:23.063Z,1.13
2022-09-20T01:05:54.799Z,0.77
2022-09-20T01:08:25.275Z,1.08
2022-09-20T01:10:53.643Z,1.80
2022-09-20T01:13:20.627Z,0.70
2022-09-20T01:15:49.351Z,0.95
2022-09-20T01:18:19.453Z,1.08
2022-09-20T01:20:47.845Z,0.83
2022-09-20T01:23:40.942Z,0.45
2022-09-20T01:26:32.609Z,0.80
2022-09-20T01:29:34.147Z,1.77
2022-09-20T01:32:06.235Z,1.23
2022-09-20T01:34:43.951Z,1.10
2022-09-20T01:37:21.803Z,0.80
2022-09-20T01:40:18.864Z,1.65
2022-09-20T01:43:45.515Z,1.10
2022-09-20T01:46:25.983Z,1.02
2022-09-20T01:49:18.883Z,0.57
2022-09-20T01:52:35.345Z,1.00
2022-09-20T01:55:39.970Z,0.80
2022-09-20T01:59:01.912Z,0.47
2022-09-20T02:01:55.740Z,0.40
2022-09-20T02:05:09.295Z,1.00
2022-09-20T02:08:27.144Z,0.57
2022-09-20T02:11:50.164Z,0.40
2022-09-20T02:14:57.919Z,1.00
2022-09-20T02:17:39.854Z,0.40
2022-09-20T02:20:37.835Z,1.70
2022-09-20T02:23:19.954Z,0.57
2022-09-20T02:26:31.976Z,0.50
2022-09-20T02:29:27.290Z,0.70
2022-09-20T02:32:29.287Z,1.10
2022-09-20T02:35:43.942Z,0.75
2022-09-20T02:38:46.419Z,1.15
2022-09-20T02:41:28.135Z,1.23
2022-09-20T02:44:12.627Z,1.33
2022-09-20T02:47:09.619Z,0.80
2022-09-20T02:50:04.347Z,0.50
2022-09-20T02:52:59.124Z,0.65
2022-09-20T02:55:43.576Z,1.10
2022-09-20T02:58:37.215Z,1.60
2022-09-20T03:01:25.099Z,1.77
2022-09-20T03:04:24.982Z,1.15
2022-09-20T03:07:06.628Z,0.60
2022-09-20T03:10:07.048Z,0.65
2022-09-20T03:12:49.361Z,1.15
2022-09-20T03:15:40.162Z,0.90
2022-09-20T03:18:18.549Z,0.30
2022-09-20T03:21:32.133Z,1.80
2022-09-20T03:24:46.512Z,0.40
2022-09-20T03:27:58.971Z,0.38
2022-09-20T03:30:52.282Z,0.50
2022-09-20T03:33:47.221Z,1.23
2022-09-20T03:36:54.737Z,0.88
2022-09-20T03:39:46.182Z,0.85
2022-09-20T03:42:25.185Z,0.20
2022-09-20T03:46:01.151Z,1.33
2022-09-20T03:48:50.930Z,1.35
2022-09-20T03:52:14.246Z,0.80
2022-09-20T03:54:54.854Z,0.70
2022-09-20T03:57:29.257Z,0.75
2022-09-20T04:00:02.747Z,1.60
2022-09-20T04:03:16.708Z,0.93
2022-09-20T04:06:40.644Z,1.00
2022-09-20T04:09:43.722Z,0.75
2022-09-20T04:13:05.294Z,0.30
2022-09-20T04:16:12.743Z,1.33
2022-09-20T04:19:10.590Z,1.20
2022-09-20T04:22:00.583Z,4.10
2022-09-20T04:25:09.699Z,1.05
2022-09-20T04:27:58.467Z,1.70
2022-09-20T04:30:29.859Z,1.97
2022-09-20T04:33:21.954Z,0.93
2022-09-20T04:36:29.782Z,1.20
2022-09-20T04:39:33.195Z,1.33
2022-09-20T04:42:54.853Z,1.20
2022-09-20T04:45:56.102Z,0.77
2022-09-20T04:49:05.814Z,1.20
2022-09-20T04:52:14.563Z,1.27
2022-09-20T04:55:15.075Z,1.05
2022-09-20T04:58:21.599Z,1.33
2022-09-20T05:01:16.818Z,0.68
2022-09-20T05:04:17.350Z,1.67
2022-09-20T05:07:21.423Z,0.88
2022-09-20T05:10:25.788Z,0.93
2022-09-20T05:13:31.046Z,1.00
2022-09-20T05:16:08.885Z,1.33
2022-09-20T05:18:45.553Z,0.68
2022-09-20T05:21:18.382Z,0.90
2022-09-20T05:24:12.056Z,0.60
2022-09-20T05:27:07.180Z,0.95
2022-09-20T05:30:23.913Z,0.93
2022-09-20T05:33:23.756Z,1.30
2022-09-20T05:36:31.207Z,2.50
2022-09-20T05:39:16.395Z,2.63
2022-09-20T05:41:56.373Z,2.20
2022-09-20T05:45:18.149Z,0.85
2022-09-20T05:48:01.835Z,0.60
2022-09-20T05:51:18.654Z,0.08
2022-09-20T05:54:33.400Z,0.20
2022-09-20T05:57:29.392Z,0.60
2022-09-20T06:00:14.418Z,0.50
2022-09-20T06:02:59.920Z,0.00
2022-09-20T06:05:59.325Z,0.57
2022-09-20T06:08:41.866Z,0.32
2022-09-20T06:11:33.703Z,0.85
2022-09-20T06:14:39.354Z,0.15
2022-09-20T06:17:32.555Z,0.20
2022-09-20T06:20:12.191Z,0.10
2022-09-20T06:22:55.360Z,0.40
2022-09-20T06:25:43.010Z,1.00
2022-09-20T06:28:21.190Z,0.15
2022-09-20T06:30:53.029Z,0.40
2022-09-20T06:33:28.984Z,0.45
2022-09-20T06:36:29.720Z,0.20
2022-09-20T06:39:40.915Z,0.13
2022-09-20T06:42:10.181Z,0.95
2022-09-20T06:44:41.335Z,0.43
2022-09-20T06:47:14.477Z,0.20
2022-09-20T06:49:42.771Z,0.10
2022-09-20T06:52:22.801Z,0.10
2022-09-20T06:54:56.159Z,0.30
2022-09-20T06:57:37.912Z,0.30
2022-09-20T07:00:11.510Z,0.30
2022-09-20T07:02:38.667Z,0.10
2022-09-20T07:05:07.571Z,0.10
2022-09-20T07:07:34.539Z,0.70
2022-09-20T07:10:01.615Z,0.30
2022-09-20T07:12:33.552Z,0.10
2022-09-20T07:15:00.558Z,0.10
2022-09-20T07:17:27.639Z,0.55
2022-09-20T07:19:56.585Z,0.20
2022-09-20T07:22:23.763Z,0.10
2022-09-20T07:24:51.090Z,0.20
2022-09-20T07:27:18.389Z,0.17
2022-09-20T07:29:46.215Z,0.30
2022-09-20T07:32:13.418Z,0.03
2022-09-20T07:34:40.577Z,0.40
2022-09-20T07:37:07.542Z,0.40
2022-09-20T07:39:34.650Z,0.10
2022-09-20T07:42:06.091Z,0.20
2022-09-20T07:44:33.176Z,0.60
2022-09-20T07:47:01.088Z,1.50
2022-09-20T07:49:31.986Z,0.20
2022-09-20T07:51:59.276Z,0.15
2022-09-20T07:54:27.597Z,0.20
2022-09-20T07:56:55.139Z,0.70
2022-09-20T07:59:22.292Z,0.40
2022-09-20T08:01:49.618Z,0.98
2022-09-20T08:04:16.698Z,0.30
2022-09-20T08:06:45.470Z,0.50
2022-09-20T08:09:13.655Z,0.28
2022-09-20T08:11:42.827Z,0.30
2022-09-20T08:14:15.638Z,0.90
2022-09-20T08:16:49.748Z,0.80
2022-09-20T08:19:20.924Z,0.77
2022-09-20T08:21:49.988Z,0.20
2022-09-20T08:24:17.602Z,0.90
2022-09-20T08:26:45.118Z,0.28
2022-09-20T08:29:13.435Z,0.43
2022-09-20T08:31:42.411Z,0.73
2022-09-20T08:34:12.532Z,1.08
2022-09-20T08:36:45.966Z,0.80
2022-09-20T08:42:36.693Z,0.50
2022-09-20T08:45:22.160Z,0.40
2022-09-20T08:48:00.359Z,0.22
2022-09-20T08:50:28.783Z,0.10
2022-09-20T08:53:00.721Z,0.22
2022-09-20T08:55:36.361Z,0.35
2022-09-20T08:58:08.583Z,0.63
2022-09-20T09:00:38.419Z,1.40
2022-09-20T09:03:12.254Z,0.55
2022-09-20T09:05:50.880Z,0.95
2022-09-20T09:08:28.414Z,0.93
2022-09-20T09:11:10.770Z,0.93
2022-09-20T09:14:39.262Z,0.88
2022-09-20T09:17:07.682Z,0.50
2022-09-20T09:19:53.075Z,0.25
2022-09-20T09:22:46.160Z,0.47
2022-09-20T09:25:32.305Z,0.10
2022-09-20T09:28:25.430Z,0.10
2022-09-20T09:30:52.474Z,0.25
2022-09-20T09:33:30.382Z,0.35
2022-09-20T09:36:10.786Z,0.00
2022-09-20T09:38:41.902Z,0.20
2022-09-20T09:41:26.724Z,0.30
2022-09-20T09:44:23.788Z,0.60
2022-09-20T09:46:53.708Z,1.02
2022-09-20T09:49:27.294Z,0.73
2022-09-20T09:52:02.777Z,0.47
2022-09-20T09:54:52.422Z,0.25
2022-09-20T09:57:55.800Z,0.70
2022-09-20T10:00:27.210Z,0.10
2022-09-20T10:03:44.046Z,0.20
2022-09-20T10:06:25.562Z,0.20
2022-09-20T10:09:18.985Z,1.15
2022-09-20T10:12:00.654Z,3.30
2022-09-20T10:15:07.747Z,3.92
2022-09-20T10:18:02.164Z,0.60
2022-09-20T10:21:03.263Z,2.47
2022-09-20T10:24:04.475Z,0.50
2022-09-20T10:26:40.228Z,0.15
2022-09-20T10:29:50.723Z,2.13
2022-09-20T10:32:40.391Z,1.88
2022-09-20T10:35:14.211Z,0.57
2022-09-20T10:38:21.699Z,0.38
2022-09-20T10:41:15.795Z,1.70
2022-09-20T10:44:05.125Z,0.57
2022-09-20T10:47:14.374Z,1.73
2022-09-20T10:50:29.393Z,1.90
2022-09-20T10:53:39.986Z,2.58
2022-09-20T10:56:31.852Z,1.15
2022-09-20T10:59:23.232Z,1.58
2022-09-20T11:02:27.359Z,0.50
2022-09-20T11:05:18.899Z,0.00
2022-09-20T11:07:52.582Z,0.52
2022-09-20T11:10:52.112Z,0.20
2022-09-20T11:13:45.739Z,0.20
2022-09-20T11:16:18.623Z,0.30
2022-09-20T11:19:27.004Z,0.50
2022-09-20T11:22:21.740Z,1.50
2022-09-20T11:25:00.656Z,1.90
2022-09-20T11:27:46.247Z,0.50
2022-09-20T11:30:23.340Z,0.30
2022-09-20T11:33:17.361Z,2.15
2022-09-20T11:36:01.868Z,0.40
2022-09-20T11:38:53.092Z,0.65
2022-09-20T11:41:29.520Z,0.60
2022-09-20T11:44:12.095Z,0.35
2022-09-20T11:47:01.719Z,0.90
2022-09-20T11:50:07.722Z,0.10
2022-09-20T11:53:05.145Z,0.10
2022-09-20T11:55:52.435Z,0.00
2022-09-20T11:58:22.480Z,0.10
2022-09-20T12:00:55.456Z,0.10
2022-09-20T12:03:41.580Z,0.30
2022-09-20T12:06:26.362Z,0.17
2022-09-20T12:08:53.708Z,0.10
2022-09-20T12:11:41.297Z,0.10
2022-09-20T12:14:23.854Z,0.30
2022-09-20T12:16:51.780Z,1.10
2022-09-20T12:19:21.515Z,0.20
2022-09-20T12:22:00.564Z,0.10
2022-09-20T12:24:45.460Z,0.30
2022-09-20T12:27:29.223Z,0.40
2022-09-20T12:30:19.352Z,0.08
2022-09-20T12:32:58.757Z,0.10
2022-09-20T12:35:39.094Z,0.47
2022-09-20T12:38:21.166Z,0.20
2022-09-20T12:41:10.158Z,0.17
2022-09-20T12:43:58.571Z,0.30
2022-09-20T12:46:56.665Z,0.10
2022-09-20T12:49:49.553Z,0.20
2022-09-20T12:53:06.307Z,0.30
2022-09-20T12:55:43.741Z,0.40
2022-09-20T12:58:16.385Z,0.70
2022-09-20T13:01:00.978Z,0.17
2022-09-20T13:03:39.283Z,0.30
2022-09-20T13:06:10.933Z,0.30
2022-09-20T13:08:58.830Z,0.40
2022-09-20T13:11:41.974Z,0.00
2022-09-20T13:14:18.430Z,0.40
2022-09-20T13:17:01.394Z,0.10
2022-09-20T13:19:41.482Z,1.00
2022-09-20T13:22:12.551Z,0.30
2022-09-20T13:24:48.997Z,0.30
2022-09-20T13:27:28.970Z,0.00
2022-09-20T13:30:08.765Z,0.32
2022-09-20T13:32:36.016Z,0.70
2022-09-20T13:35:18.272Z,0.50
2022-09-20T13:38:10.029Z,0.13
2022-09-20T13:40:47.804Z,0.20
2022-09-20T13:43:37.676Z,0.10
2022-09-20T13:46:14.097Z,0.38
2022-09-20T13:48:42.584Z,0.10
2022-09-20T13:51:24.642Z,0.45
2022-09-20T13:53:51.843Z,0.25
2022-09-20T13:56:30.015Z,0.10
2022-09-20T13:59:00.972Z,0.20
2022-09-20T14:01:32.445Z,0.10
2022-09-20T14:04:13.665Z,0.33
2022-09-20T14:06:42.477Z,0.30
2022-09-20T14:09:41.598Z,0.00
2022-09-20T14:12:11.298Z,0.10
2022-09-20T14:14:39.075Z,0.55
2022-09-20T14:17:09.578Z,0.30
2022-09-20T14:19:42.575Z,0.10
2022-09-20T14:22:20.912Z,0.30
2022-09-20T14:24:59.530Z,0.20
2022-09-20T14:27:26.594Z,0.20
2022-09-20T14:29:56.290Z,0.10
2022-09-20T14:32:44.947Z,0.20
2022-09-20T14:35:21.921Z,0.10
2022-09-20T14:37:55.335Z,0.05
2022-09-20T14:40:30.403Z,0.52
2022-09-20T14:43:00.413Z,0.40
2022-09-20T14:45:34.625Z,0.00
2022-09-20T14:48:11.893Z,0.70
2022-09-20T14:51:07.591Z,0.50
2022-09-20T14:53:37.187Z,0.20
2022-09-20T14:56:07.239Z,0.08
2022-09-20T14:59:09.581Z,0.70
2022-09-20T15:01:42.375Z,0.10
2022-09-20T15:04:23.518Z,0.63
2022-09-20T15:06:53.198Z,0.35
2022-09-20T15:09:21.955Z,0.50
2022-09-20T15:12:16.369Z,0.40
2022-09-20T15:14:44.218Z,0.47
2022-09-20T15:17:20.326Z,0.53
2022-09-20T15:19:50.375Z,0.95
2022-09-20T15:22:17.793Z,0.60
2022-09-20T15:24:44.855Z,0.70
2022-09-20T15:27:15.449Z,0.70
2022-09-20T15:29:45.152Z,2.20
2022-09-20T15:32:12.191Z,0.80
2022-09-20T15:34:39.303Z,0.98
2022-09-20T15:37:06.329Z,0.95
2022-09-20T15:39:34.490Z,0.95
2022-09-20T15:42:02.551Z,0.93
2022-09-20T15:44:29.802Z,0.90
2022-09-20T15:46:59.369Z,1.20
2022-09-20T15:49:28.627Z,0.57
2022-09-20T15:51:55.735Z,1.25
2022-09-20T15:54:22.815Z,1.10
2022-09-20T15:56:53.339Z,0.40
2022-09-20T15:59:23.231Z,0.63
2022-09-20T16:01:51.710Z,0.80
2022-09-20T16:04:19.915Z,0.55
2022-09-20T16:06:49.712Z,0.65
2022-09-20T16:09:18.290Z,0.80
2022-09-20T16:11:47.058Z,0.30
2022-09-20T16:14:14.484Z,0.50
2022-09-20T16:16:41.962Z,2.20
2022-09-20T16:19:20.106Z,0.45
2022-09-20T16:21:58.881Z,0.70
2022-09-20T16:24:34.013Z,0.82
2022-09-20T16:27:03.885Z,1.17
2022-09-20T16:29:32.129Z,0.20
2022-09-20T16:32:03.412Z,0.38
2022-09-20T16:34:34.615Z,0.82
2022-09-20T16:37:10.395Z,0.57
2022-09-20T16:39:37.770Z,1.00
2022-09-20T16:42:07.523Z,0.50
2022-09-20T16:44:37.254Z,0.55
2022-09-20T16:47:08.984Z,0.20
2022-09-20T16:49:37.376Z,0.38
2022-09-20T16:52:06.199Z,2.22
2022-09-20T16:54:33.871Z,0.68
2022-09-20T16:57:01.471Z,0.65
2022-09-20T16:59:28.649Z,1.15
2022-09-20T17:01:55.725Z,0.55
2022-09-20T17:04:23.179Z,0.60
2022-09-20T17:06:51.769Z,1.75
2022-09-20T17:09:18.992Z,1.63
2022-09-20T17:11:50.288Z,1.13
2022-09-20T17:14:20.578Z,0.73
2022-09-20T17:16:49.510Z,1.70
2022-09-20T17:19:20.785Z,4.28
2022-09-20T17:21:50.617Z,1.08
2022-09-20T17:24:20.728Z,1.48
2022-09-20T17:26:49.003Z,1.00
2022-09-20T17:29:18.200Z,0.90
2022-09-20T17:31:53.969Z,1.10
2022-09-20T17:34:22.246Z,1.45
2022-09-20T17:36:50.824Z,2.53
2022-09-20T17:39:18.498Z,2.08
2022-09-20T17:41:48.927Z,2.83
2022-09-20T17:44:16.744Z,2.03
2022-09-20T17:46:46.822Z,0.95
2022-09-20T17:49:20.772Z,2.05
2022-09-20T17:51:53.716Z,2.30
2022-09-20T17:54:21.984Z,1.90
2022-09-20T17:56:53.499Z,1.58
2022-09-20T17:59:21.278Z,1.92
2022-09-20T18:01:51.507Z,1.40
2022-09-20T18:04:20.916Z,1.48
2022-09-20T18:06:50.807Z,2.10
2022-09-20T18:09:21.458Z,1.80
2022-09-20T18:11:52.837Z,1.20
2022-09-20T18:14:27.351Z,1.02
2022-09-20T18:17:01.030Z,1.67
2022-09-20T18:19:34.473Z,2.38
2022-09-20T18:22:03.203Z,2.30
2022-09-20T18:24:31.035Z,2.20
2022-09-20T18:26:58.330Z,3.27
2022-09-20T18:29:25.351Z,3.00
2022-09-20T18:31:57.931Z,3.03
2022-09-20T18:34:32.081Z,3.00
2022-09-20T18:37:01.157Z,3.25
2022-09-20T18:39:33.738Z,2.33
2022-09-20T18:42:02.197Z,2.78
2022-09-20T18:44:32.362Z,4.03
2022-09-20T18:47:01.376Z,3.30
2022-09-20T18:49:29.508Z,4.65
2022-09-20T18:51:57.754Z,3.33
2022-09-20T18:54:24.885Z,4.43
2022-09-20T18:56:52.395Z,3.90
2022-09-20T18:59:25.251Z,4.20
2022-09-20T19:01:55.695Z,3.72
2022-09-20T19:05:06.797Z,2.95
2022-09-20T19:08:09.293Z,3.13
2022-09-20T19:10:56.331Z,1.60
2022-09-20T19:13:45.103Z,2.33
2022-09-20T19:16:21.899Z,3.35
2022-09-20T19:19:20.159Z,2.55
2022-09-20T19:22:31.878Z,2.17
2022-09-20T19:25:17.432Z,2.15
2022-09-20T19:27:45.023Z,1.63
2022-09-20T19:30:17.363Z,1.90
2022-09-20T19:32:45.619Z,2.95
2022-09-20T19:35:28.355Z,2.33
2022-09-20T19:38:24.419Z,2.53
2022-09-20T19:41:48.515Z,2.08
2022-09-20T19:44:53.052Z,2.70
2022-09-20T19:48:22.234Z,2.17
2022-09-20T19:50:52.627Z,2.45
2022-09-20T19:53:26.735Z,2.23
2022-09-20T19:56:16.637Z,1.95
2022-09-20T19:58:45.483Z,1.67
2022-09-20T20:01:13.508Z,2.60
2022-09-20T20:03:41.067Z,1.80
2022-09-20T20:06:36.908Z,1.73
2022-09-20T20:09:09.411Z,1.50
2022-09-20T20:11:54.176Z,1.95
2022-09-20T20:14:44.496Z,1.33
2022-09-20T20:17:45.591Z,2.03
2022-09-20T20:20:25.097Z,2.15
2022-09-20T20:23:02.560Z,2.00
2022-09-20T20:26:02.919Z,1.98
2022-09-20T20:28:30.796Z,1.70
2022-09-20T20:31:02.221Z,3.53
2022-09-20T20:33:30.823Z,2.42
2022-09-20T20:36:01.379Z,3.35
2022-09-20T20:38:30.156Z,1.92
2022-09-20T20:41:15.034Z,2.38
2022-09-20T20:43:43.813Z,1.63
2022-09-20T20:46:14.330Z,1.95
2022-09-20T20:48:42.198Z,1.80
2022-09-20T20:51:12.603Z,1.90
2022-09-20T20:53:47.055Z,1.70
2022-09-20T20:56:19.405Z,2.03
2022-09-20T20:58:47.912Z,2.90
2022-09-20T21:01:21.387Z,2.63
2022-09-20T21:03:54.229Z,1.83
2022-09-20T21:06:25.059Z,1.45
2022-09-20T21:08:52.698Z,1.70
2022-09-20T21:11:33.560Z,1.70
2022-09-20T21:14:03.210Z,1.70
2022-09-20T21:16:35.240Z,2.17
2022-09-20T21:19:04.686Z,2.28
2022-09-20T21:21:38.877Z,2.00
2022-09-20T21:24:09.069Z,1.55
2022-09-20T21:26:38.048Z,2.38
2022-09-20T21:29:08.372Z,2.15
2022-09-20T21:31:38.593Z,2.22
2022-09-20T21:34:07.942Z,2.55
2022-09-20T21:36:36.687Z,2.03
2022-09-20T21:39:05.472Z,1.80
2022-09-20T21:41:35.859Z,2.92
2022-09-20T21:44:05.394Z,1.88
2022-09-20T21:46:35.853Z,1.65
2022-09-20T21:49:05.545Z,2.10
2022-09-20T21:51:33.631Z,2.15
2022-09-20T21:54:02.105Z,1.70
2022-09-20T21:56:32.514Z,1.70
2022-09-20T21:59:02.178Z,2.22
2022-09-20T22:01:35.059Z,2.25
2022-09-20T22:04:08.262Z,2.17
2022-09-20T22:06:39.150Z,3.08
2022-09-20T22:09:18.000Z,3.72
2022-09-20T22:11:48.791Z,4.23
2022-09-20T22:14:19.590Z,3.10
2022-09-20T22:16:48.622Z,3.72
2022-09-20T22:19:18.271Z,3.20
2022-09-20T22:21:48.204Z,4.17
2022-09-20T22:24:16.583Z,5.03
2022-09-20T22:26:51.235Z,4.93
2022-09-20T22:29:18.692Z,5.55
2022-09-20T22:31:47.632Z,5.07
2022-09-20T22:34:22.582Z,5.80
2022-09-20T22:36:49.947Z,5.00
2022-09-20T22:39:17.608Z,5.40
2022-09-20T22:41:47.753Z,5.05
2022-09-20T22:44:14.978Z,4.70
2022-09-20T22:46:42.200Z,5.32
2022-09-20T22:49:10.179Z,6.97
2022-09-20T22:51:38.131Z,7.63
2022-09-20T22:54:08.795Z,7.15
2022-09-20T22:56:37.008Z,6.57
2022-09-20T22:59:07.835Z,6.00
2022-09-20T23:01:42.395Z,4.45
2022-09-20T23:04:13.786Z,6.70
2022-09-20T23:06:47.829Z,4.70
2022-09-20T23:09:18.005Z,6.18
2022-09-20T23:11:45.422Z,5.45
2022-09-20T23:14:18.701Z,6.05
2022-09-20T23:16:47.441Z,4.97
2022-09-20T23:19:15.527Z,3.90
2022-09-20T23:21:43.810Z,4.83
2022-09-20T23:24:13.488Z,4.47
2022-09-20T23:26:41.677Z,4.55
2022-09-20T23:29:14.978Z,4.25
2022-09-20T23:31:46.145Z,3.88
2022-09-20T23:34:14.765Z,3.53
2022-09-20T23:36:42.641Z,4.10
2022-09-20T23:39:10.945Z,4.43
2022-09-20T23:41:38.853Z,4.72
2022-09-20T23:44:06.801Z,4.03
2022-09-20T23:46:34.486Z,4.40
2022-09-20T23:49:02.392Z,5.28
2022-09-20T23:51:30.748Z,3.67
2022-09-20T23:53:57.834Z,4.47
2022-09-20T23:56:25.037Z,5.75
2022-09-20T23:58:52.171Z,4.43
